Time;durP1;ratioP1;P1;durP2;ratioP2;P2;SDS_P1;SDS_P2;PMS_P1;PMS_P2;Temp;Humidity;BMP_temperature;BMP_pressure;BME280_temperature;BME280_humidity;BME280_pressure;Samples;Min_cycle;Max_cycle;Signal;HPM_P1;HPM_P2
2021/03/10 00:01:59;;;;;;;30.03;19.30;;;0.80;99.90;;;;;;5082238;28;20261;-80
2021/03/10 00:04:24;;;;;;;27.20;17.67;;;1.00;99.90;;;;;;5081741;28;20219;-80
2021/03/10 00:06:50;;;;;;;30.27;18.23;;;0.80;99.90;;;;;;5081382;28;20195;-80
2021/03/10 00:09:15;;;;;;;34.67;18.90;;;1.00;99.90;;;;;;5081242;28;20534;-80
2021/03/10 00:11:41;;;;;;;30.90;18.77;;;1.10;99.90;;;;;;5099926;28;20172;-80
2021/03/10 00:14:07;;;;;;;28.63;18.27;;;1.00;99.90;;;;;;5081126;28;20297;-80
2021/03/10 00:16:32;;;;;;;32.13;19.90;;;1.10;99.90;;;;;;5099739;28;20259;-79
2021/03/10 00:18:58;;;;;;;34.53;19.97;;;1.00;99.90;;;;;;5098636;28;20172;-81
2021/03/10 00:21:24;;;;;;;31.87;19.10;;;;;;;;;;5099294;28;20262;-80
2021/03/10 00:23:50;;;;;;;28.27;18.80;;;;;;;;;;5081650;28;20238;-80
2021/03/10 00:26:16;;;;;;;28.77;18.63;;;;;;;;;;5080778;28;20892;-80
2021/03/10 00:28:42;;;;;;;31.90;20.20;;;;;;;;;;5099406;28;20204;-80
2021/03/10 00:31:08;;;;;;;29.97;18.53;;;1.00;99.90;;;;;;5081040;28;20410;-80
2021/03/10 00:33:34;;;;;;;32.07;19.27;;;1.00;99.90;;;;;;5099377;28;20634;-80
2021/03/10 00:36:00;;;;;;;35.93;20.33;;;1.80;99.90;;;;;;5098927;28;20447;-80
2021/03/10 00:38:26;;;;;;;41.70;22.87;;;;;;;;;;5098593;28;20262;-80
2021/03/10 00:40:52;;;;;;;34.93;21.90;;;;;;;;;;5081322;28;20214;-80
2021/03/10 00:43:18;;;;;;;34.43;20.87;;;;;;;;;;5100518;28;20418;-80
2021/03/10 00:45:43;;;;;;;37.57;24.83;;;1.30;99.90;;;;;;5081970;28;20430;-80
2021/03/10 00:48:09;;;;;;;42.83;25.77;;;1.40;99.90;;;;;;5082111;28;20417;-80
2021/03/10 00:50:35;;;;;;;45.40;25.77;;;1.30;99.90;;;;;;5082381;28;20172;-80
2021/03/10 00:53:01;;;;;;;41.17;24.97;;;1.30;99.90;;;;;;5100320;28;20581;-80
2021/03/10 00:55:26;;;;;;;39.03;22.80;;;1.40;99.90;;;;;;5082439;28;20200;-80
2021/03/10 00:57:52;;;;;;;37.00;23.13;;;2.20;99.90;;;;;;5100280;28;20172;-80
2021/03/10 01:00:19;;;;;;;44.13;24.93;;;1.40;99.90;;;;;;5101261;28;20681;-80
2021/03/10 01:02:45;;;;;;;36.47;23.93;;;1.30;99.90;;;;;;5082891;28;20204;-80
2021/03/10 01:05:11;;;;;;;35.87;22.83;;;1.40;99.90;;;;;;5082549;28;20469;-80
2021/03/10 01:07:37;;;;;;;45.60;26.27;;;1.30;99.90;;;;;;5082142;28;20187;-80
2021/03/10 01:10:05;;;;;;;40.87;23.77;;;1.30;99.90;;;;;;5101348;28;20415;-80
2021/03/10 01:12:31;;;;;;;40.53;24.33;;;1.30;99.90;;;;;;5101674;28;20425;-80
2021/03/10 01:14:57;;;;;;;35.50;22.70;;;1.30;99.90;;;;;;5083449;28;20927;-81
2021/03/10 01:17:22;;;;;;;41.00;25.17;;;1.20;99.90;;;;;;5102208;28;20172;-79
2021/03/10 01:19:48;;;;;;;35.87;22.83;;;1.30;99.90;;;;;;5101989;28;20183;-81
2021/03/10 01:22:14;;;;;;;41.30;26.07;;;1.30;99.90;;;;;;5084064;28;20180;-80
2021/03/10 01:24:39;;;;;;;39.00;24.10;;;1.30;99.90;;;;;;5102159;28;20795;-81
2021/03/10 01:27:05;;;;;;;39.80;24.37;;;1.50;99.90;;;;;;5084022;28;20183;-80
2021/03/10 01:29:31;;;;;;;39.77;25.37;;;1.30;99.90;;;;;;5083941;28;20201;-80
2021/03/10 01:31:57;;;;;;;37.53;23.37;;;1.30;99.90;;;;;;5115023;28;20390;-82
2021/03/10 01:34:22;;;;;;;44.33;26.07;;;2.20;99.90;;;;;;5098121;28;20204;-80
2021/03/10 01:36:48;;;;;;;42.30;26.17;;;1.40;99.90;;;;;;5103856;28;20176;-80
2021/03/10 01:39:14;;;;;;;42.87;24.23;;;1.30;99.90;;;;;;5085592;28;20187;-80
2021/03/10 01:41:39;;;;;;;39.13;24.30;;;1.20;99.90;;;;;;5103868;28;20180;-80
2021/03/10 01:44:05;;;;;;;37.90;25.63;;;1.30;99.90;;;;;;5103733;28;20219;-80
2021/03/10 01:46:39;;;;;;;41.17;25.20;;;1.30;99.90;;;;;;5085422;28;20173;-80
2021/03/10 01:49:06;;;;;;;41.37;25.17;;;1.30;99.90;;;;;;5083660;28;20246;-80
2021/03/10 01:51:31;;;;;;;42.23;24.70;;;1.30;99.90;;;;;;5101515;28;20410;-80
2021/03/10 01:53:57;;;;;;;41.80;25.80;;;1.30;99.90;;;;;;5083490;28;20529;-80
2021/03/10 01:56:26;;;;;;;40.67;25.00;;;1.30;99.90;;;;;;5083571;28;20203;-80
2021/03/10 01:58:52;;;;;;;38.90;23.17;;;1.40;99.90;;;;;;5084367;28;20548;-80
2021/03/10 02:01:18;;;;;;;37.87;22.37;;;2.00;99.90;;;;;;5102220;28;20269;-80
2021/03/10 02:03:43;;;;;;;45.63;25.33;;;1.20;99.90;;;;;;5102015;28;20461;-79
2021/03/10 02:06:16;;;;;;;39.77;23.93;;;1.30;99.90;;;;;;5083388;28;20222;-80
2021/03/10 02:09:06;;;;;;;37.83;23.57;;;1.30;99.90;;;;;;5082256;28;20172;-80
2021/03/10 02:11:42;;;;;;;35.50;21.93;;;1.30;99.90;;;;;;5100795;28;20407;-80
2021/03/10 02:14:33;;;;;;;40.50;24.17;;;1.40;99.90;;;;;;5100748;28;20436;-80
2021/03/10 02:17:11;;;;;;;41.53;24.23;;;1.30;99.90;;;;;;5099271;28;20460;-80
2021/03/10 02:20:02;;;;;;;38.93;23.93;;;1.30;99.90;;;;;;5101370;28;20164;-80
2021/03/10 02:23:07;;;;;;;38.50;24.33;;;1.30;99.90;;;;;;5084271;28;20410;-80
2021/03/10 02:25:33;;;;;;;42.30;24.83;;;1.20;99.90;;;;;;5102672;28;20465;-80
2021/03/10 02:28:00;;;;;;;39.83;24.97;;;1.20;99.90;;;;;;5084453;28;20414;-80
2021/03/10 02:30:32;;;;;;;42.60;25.80;;;1.10;99.90;;;;;;5102677;28;20176;-80
2021/03/10 02:33:17;;;;;;;45.43;25.20;;;1.20;99.90;;;;;;5102810;28;20785;-80
2021/03/10 02:35:46;;;;;;;41.50;24.40;;;1.10;99.90;;;;;;5101956;28;20436;-80
2021/03/10 02:38:19;;;;;;;39.23;25.00;;;1.00;99.90;;;;;;5082499;28;20509;-80
2021/03/10 02:40:48;;;;;;;44.07;24.77;;;1.00;99.90;;;;;;5082326;28;20414;-80
2021/03/10 02:43:14;;;;;;;42.87;24.90;;;1.10;99.90;;;;;;5082071;28;20418;-80
2021/03/10 02:45:41;;;;;;;41.53;24.33;;;1.20;99.90;;;;;;5100596;28;20445;-80
2021/03/10 02:48:07;;;;;;;41.13;25.30;;;1.20;99.90;;;;;;5101101;28;20436;-81
2021/03/10 02:50:34;;;;;;;40.23;24.73;;;1.20;99.90;;;;;;5082990;28;20919;-80
2021/03/10 02:53:03;;;;;;;41.63;25.73;;;1.20;99.90;;;;;;5083760;28;20183;-80
2021/03/10 02:55:31;;;;;;;40.70;23.50;;;1.20;99.90;;;;;;5102891;28;20427;-80
2021/03/10 02:57:58;;;;;;;36.77;22.50;;;1.30;99.90;;;;;;5103497;28;20398;-81
2021/03/10 03:00:24;;;;;;;35.57;21.80;;;1.20;99.90;;;;;;5104182;28;20406;-80
2021/03/10 03:02:51;;;;;;;36.33;22.23;;;1.10;99.90;;;;;;5104118;28;20794;-81
2021/03/10 03:05:17;;;;;;;36.90;22.90;;;1.10;99.90;;;;;;5103505;28;20820;-81
2021/03/10 03:07:45;;;;;;;37.37;23.10;;;1.10;99.90;;;;;;5085924;28;20442;-79
2021/03/10 03:10:15;;;;;;;31.70;20.90;;;1.10;99.90;;;;;;5104427;28;20493;-81
2021/03/10 03:12:43;;;;;;;36.87;23.40;;;1.10;99.90;;;;;;5086549;28;20406;-81
2021/03/10 03:15:13;;;;;;;38.20;23.70;;;1.10;99.90;;;;;;5087321;28;20473;-81
2021/03/10 03:17:40;;;;;;;42.47;24.80;;;1.20;99.90;;;;;;5104540;28;20432;-81
2021/03/10 03:20:07;;;;;;;35.67;21.53;;;1.20;99.90;;;;;;5105812;28;20892;-80
2021/03/10 03:22:35;;;;;;;35.43;21.67;;;1.20;99.90;;;;;;5087754;28;20418;-80
2021/03/10 03:25:02;;;;;;;38.50;22.20;;;1.20;99.90;;;;;;5100957;28;20943;-80
2021/03/10 03:27:28;;;;;;;38.73;22.43;;;1.20;99.90;;;;;;5100805;28;20415;-80
2021/03/10 03:29:59;;;;;;;35.60;22.50;;;1.20;99.90;;;;;;5100636;28;20416;-80
2021/03/10 03:32:29;;;;;;;36.30;22.67;;;1.20;99.90;;;;;;5082788;28;20429;-80
2021/03/10 03:34:55;;;;;;;36.13;21.03;;;1.20;99.90;;;;;;5082149;28;20430;-80
2021/03/10 03:37:22;;;;;;;36.30;21.43;;;1.20;99.90;;;;;;5082728;28;20513;-80
2021/03/10 03:39:49;;;;;;;36.47;21.77;;;1.30;99.90;;;;;;5100653;28;20518;-80
2021/03/10 03:42:16;;;;;;;34.03;21.10;;;1.20;99.90;;;;;;5082863;28;20438;-80
2021/03/10 03:44:41;;;;;;;42.87;24.80;;;1.20;99.90;;;;;;5100788;28;20453;-80
2021/03/10 03:47:08;;;;;;;33.27;20.77;;;1.20;99.90;;;;;;5100984;28;20899;-81
2021/03/10 03:49:35;;;;;;;37.27;23.57;;;1.20;99.90;;;;;;5100499;28;20168;-80
2021/03/10 03:52:01;;;;;;;36.23;22.60;;;1.20;99.90;;;;;;5101068;28;20494;-81
2021/03/10 03:54:26;;;;;;;37.77;22.80;;;1.20;99.90;;;;;;5100684;28;20529;-80
2021/03/10 03:56:52;;;;;;;39.93;24.03;;;1.30;99.90;;;;;;5100927;28;20178;-80
2021/03/10 03:59:17;;;;;;;35.17;21.87;;;1.20;99.90;;;;;;5100679;28;20172;-80
2021/03/10 04:01:43;;;;;;;35.23;21.57;;;1.30;99.90;;;;;;5082424;28;20237;-80
2021/03/10 04:04:09;;;;;;;37.70;23.10;;;1.20;99.90;;;;;;5082715;28;20208;-80
2021/03/10 04:06:34;;;;;;;37.43;22.90;;;1.40;99.90;;;;;;5081787;28;20184;-80
2021/03/10 04:09:00;;;;;;;32.90;21.30;;;1.40;99.90;;;;;;5100695;28;20621;-80
2021/03/10 04:11:26;;;;;;;37.23;22.73;;;1.30;99.90;;;;;;5100720;28;20225;-80
2021/03/10 04:13:51;;;;;;;35.57;23.10;;;1.40;99.90;;;;;;5082048;28;20200;-81
2021/03/10 04:16:17;;;;;;;36.50;20.57;;;1.40;99.90;;;;;;5100784;28;20168;-80
2021/03/10 04:18:43;;;;;;;35.60;22.80;;;1.40;99.90;;;;;;5082261;28;20180;-81
2021/03/10 04:21:08;;;;;;;32.73;21.07;;;1.40;99.90;;;;;;5100189;28;20180;-80
2021/03/10 04:23:34;;;;;;;35.73;22.53;;;1.40;99.90;;;;;;5101209;28;20173;-80
2021/03/10 04:26:00;;;;;;;32.37;20.10;;;1.30;99.90;;;;;;5082681;28;20243;-80
2021/03/10 04:28:26;;;;;;;31.93;20.37;;;1.30;99.90;;;;;;5100237;28;20164;-81
2021/03/10 04:30:51;;;;;;;33.53;20.23;;;1.40;99.90;;;;;;5082603;28;20198;-80
2021/03/10 04:33:17;;;;;;;32.80;21.50;;;1.40;99.90;;;;;;5100057;28;20172;-81
2021/03/10 04:35:43;;;;;;;38.07;23.57;;;1.40;99.90;;;;;;5099969;28;20187;-80
2021/03/10 04:38:08;;;;;;;36.33;23.00;;;1.30;99.90;;;;;;5099657;28;20210;-80
2021/03/10 04:40:34;;;;;;;37.80;22.03;;;1.40;99.90;;;;;;5081769;28;20176;-81
2021/03/10 04:43:00;;;;;;;34.83;21.87;;;1.40;99.90;;;;;;5100514;28;20180;-80
2021/03/10 04:45:25;;;;;;;36.30;22.80;;;1.40;99.90;;;;;;5081930;28;20223;-80
2021/03/10 04:47:51;;;;;;;30.97;21.00;;;1.40;99.90;;;;;;5099963;28;20560;-80
2021/03/10 04:50:19;;;;;;;32.10;19.27;;;1.40;99.90;;;;;;5078867;28;20183;-80
2021/03/10 04:52:45;;;;;;;35.03;21.00;;;1.40;99.90;;;;;;5078936;28;20242;-80
2021/03/10 04:55:11;;;;;;;32.43;20.13;;;1.50;99.90;;;;;;5096373;28;20895;-80
2021/03/10 04:57:38;;;;;;;43.80;25.47;;;1.40;99.90;;;;;;5078381;28;20175;-80
2021/03/10 05:00:08;;;;;;;39.50;24.73;;;1.40;99.90;;;;;;5078868;28;20935;-80
2021/03/10 05:02:35;;;;;;;32.03;19.50;;;1.40;99.90;;;;;;5097093;28;20398;-80
2021/03/10 05:05:02;;;;;;;33.13;19.90;;;1.40;99.90;;;;;;5079605;28;20552;-80
2021/03/10 05:07:27;;;;;;;32.50;20.97;;;1.40;99.90;;;;;;5101404;28;20191;-80
2021/03/10 05:09:53;;;;;;;33.07;19.33;;;1.90;99.90;;;;;;5101308;28;20406;-81
2021/03/10 05:12:19;;;;;;;37.20;24.00;;;1.50;99.90;;;;;;5083725;28;20262;-81
2021/03/10 05:14:44;;;;;;;30.50;20.30;;;1.40;99.90;;;;;;5102085;28;20277;-81
2021/03/10 05:17:10;;;;;;;32.27;20.00;;;1.20;99.90;;;;;;5102968;28;20180;-82
2021/03/10 05:19:36;;;;;;;32.00;19.67;;;1.30;99.90;;;;;;5084583;28;20234;-80
2021/03/10 05:22:01;;;;;;;33.73;20.20;;;1.30;99.90;;;;;;5084138;28;20233;-81
2021/03/10 05:24:33;;;;;;;34.83;21.77;;;1.10;99.90;;;;;;5102757;28;20219;-81
2021/03/10 05:27:01;;;;;;;28.93;20.13;;;1.10;99.90;;;;;;5083923;28;20247;-80
2021/03/10 05:29:30;;;;;;;37.13;22.43;;;1.00;99.90;;;;;;5083758;28;20421;-82
2021/03/10 05:32:01;;;;;;;31.03;18.87;;;0.90;99.90;;;;;;5101517;28;20410;-81
2021/03/10 05:34:27;;;;;;;35.50;20.63;;;0.90;99.90;;;;;;5083015;28;20430;-82
2021/03/10 05:36:56;;;;;;;28.60;17.60;;;0.90;99.90;;;;;;5101280;28;20420;-81
2021/03/10 05:39:22;;;;;;;31.87;19.63;;;1.10;99.90;;;;;;5082008;28;20783;-82
2021/03/10 05:41:48;;;;;;;36.03;20.27;;;0.80;99.90;;;;;;5102513;28;20406;-81
2021/03/10 05:44:15;;;;;;;29.97;19.87;;;0.80;99.90;;;;;;5084683;28;20580;-81
2021/03/10 05:46:41;;;;;;;34.20;22.20;;;0.80;99.90;;;;;;5085458;28;20968;-82
2021/03/10 05:49:07;;;;;;;32.57;19.80;;;0.70;99.90;;;;;;5103684;28;20402;-80
2021/03/10 05:51:34;;;;;;;26.67;17.80;;;0.70;99.90;;;;;;5085642;28;20222;-81
2021/03/10 05:54:01;;;;;;;38.37;21.33;;;0.70;99.90;;;;;;5103841;28;20434;-81
2021/03/10 05:56:27;;;;;;;30.50;19.43;;;0.80;99.90;;;;;;5104076;28;20463;-82
2021/03/10 05:59:01;;;;;;;32.63;17.63;;;0.80;99.90;;;;;;5086065;28;20414;-82
2021/03/10 06:01:27;;;;;;;30.73;19.77;;;1.10;99.90;;;;;;5105324;28;20196;-81
2021/03/10 06:03:57;;;;;;;29.63;17.70;;;2.50;99.90;;;;;;5087354;28;20470;-82
2021/03/10 06:06:24;;;;;;;36.03;21.57;;;0.90;99.90;;;;;;5088280;28;20466;-82
2021/03/10 06:08:50;;;;;;;32.33;20.27;;;0.90;99.90;;;;;;5088270;28;20414;-81
2021/03/10 06:11:28;;;;;;;33.90;21.20;;;1.00;99.90;;;;;;5043319;28;20450;-81
2021/03/10 06:13:54;;;;;;;31.77;19.10;;;1.00;99.90;;;;;;5107396;28;20192;-80
2021/03/10 06:16:25;;;;;;;33.63;21.43;;;1.00;99.90;;;;;;5112506;28;20487;-81
2021/03/10 06:19:04;;;;;;;36.70;19.57;;;1.00;99.90;;;;;;5092596;28;20421;-80
2021/03/10 06:21:30;;;;;;;30.70;18.07;;;1.10;99.90;;;;;;5085686;28;20422;-81
2021/03/10 06:24:00;;;;;;;26.70;16.83;;;2.40;99.90;;;;;;5103850;28;20468;-81
2021/03/10 06:26:28;;;;;;;32.33;20.47;;;1.10;99.90;;;;;;5103415;28;20414;-81
2021/03/10 06:28:55;;;;;;;29.67;19.00;;;1.50;99.90;;;;;;5103405;28;20417;-82
2021/03/10 06:31:21;;;;;;;31.37;19.33;;;;;;;;;;5102688;28;20402;-81
2021/03/10 06:34:05;;;;;;;31.47;18.90;;;1.20;99.90;;;;;;5101781;28;20433;-82
2021/03/10 06:36:39;;;;;;;31.80;20.00;;;1.20;99.90;;;;;;5101504;28;20169;-81
2021/03/10 06:39:07;;;;;;;30.63;18.43;;;1.30;99.90;;;;;;5085623;28;20435;-81
2021/03/10 06:41:43;;;;;;;31.90;19.47;;;1.20;99.90;;;;;;5103374;28;20410;-81
2021/03/10 06:44:27;;;;;;;31.93;20.13;;;1.30;99.90;;;;;;5086634;28;20465;-82
2021/03/10 06:46:59;;;;;;;31.80;19.30;;;1.40;99.90;;;;;;5086804;28;20421;-81
2021/03/10 06:49:27;;;;;;;25.57;15.37;;;1.40;99.90;;;;;;5087153;28;20434;-82
2021/03/10 06:51:57;;;;;;;32.57;18.47;;;1.40;99.90;;;;;;5086981;28;20414;-81
2021/03/10 06:54:24;;;;;;;27.97;16.63;;;1.40;99.90;;;;;;5087068;28;20433;-82
2021/03/10 06:57:14;;;;;;;29.67;19.13;;;1.40;99.90;;;;;;5105069;28;20398;-80
2021/03/10 06:59:44;;;;;;;30.50;18.03;;;1.40;99.90;;;;;;5085338;28;20410;-80
2021/03/10 07:02:23;;;;;;;34.27;19.77;;;1.40;99.90;;;;;;5086953;28;20501;-81
2021/03/10 07:04:56;;;;;;;29.10;17.87;;;1.50;99.90;;;;;;5106420;28;20473;-81
2021/03/10 07:07:23;;;;;;;32.63;19.90;;;1.60;99.90;;;;;;5104565;28;20422;-80
2021/03/10 07:09:50;;;;;;;30.03;18.67;;;1.60;99.90;;;;;;5087057;28;20407;-81
2021/03/10 07:12:17;;;;;;;31.37;19.33;;;1.60;99.90;;;;;;5105249;28;20402;-81
2021/03/10 07:14:43;;;;;;;31.27;18.83;;;1.70;99.90;;;;;;5105300;28;20450;-81
2021/03/10 07:17:11;;;;;;;31.80;19.90;;;1.60;99.90;;;;;;5087188;28;20418;-81
2021/03/10 07:19:37;;;;;;;30.43;17.80;;;1.70;99.90;;;;;;5088186;28;20415;-81
2021/03/10 07:22:20;;;;;;;28.90;17.53;;;1.70;99.90;;;;;;5088005;28;20417;-81
2021/03/10 07:25:15;;;;;;;33.33;18.97;;;1.70;99.90;;;;;;5087421;28;20284;-81
2021/03/10 07:27:51;;;;;;;28.87;17.53;;;1.70;99.90;;;;;;5105374;28;20441;-81
2021/03/10 07:30:17;;;;;;;30.97;18.67;;;1.70;99.90;;;;;;5106611;28;20481;-81
2021/03/10 07:32:43;;;;;;;34.07;20.00;;;1.60;99.90;;;;;;5087587;28;20414;-82
2021/03/10 07:35:12;;;;;;;40.47;23.57;;;1.50;99.90;;;;;;5105940;28;20511;-81
2021/03/10 07:37:40;;;;;;;32.20;20.43;;;1.50;99.90;;;;;;5086884;28;20263;-81
2021/03/10 07:40:13;;;;;;;35.67;21.93;;;1.60;99.90;;;;;;5104659;28;20414;-81
2021/03/10 07:42:56;;;;;;;37.93;21.97;;;1.50;99.90;;;;;;5105071;28;20411;-83
2021/03/10 07:45:25;;;;;;;27.43;17.00;;;1.50;99.90;;;;;;5103803;28;20457;-81
2021/03/10 07:47:58;;;;;;;30.30;18.63;;;1.50;99.90;;;;;;5104307;28;20418;-81
2021/03/10 07:50:36;;;;;;;29.43;19.33;;;1.60;99.90;;;;;;5085527;28;20406;-80
2021/03/10 07:53:02;;;;;;;30.53;19.63;;;1.50;99.90;;;;;;5085238;28;20413;-81
2021/03/10 07:55:28;;;;;;;37.13;22.87;;;1.60;99.90;;;;;;5103927;28;20871;-81
2021/03/10 07:57:55;;;;;;;29.27;18.13;;;1.60;99.90;;;;;;5103393;28;20638;-81
2021/03/10 08:00:36;;;;;;;33.40;20.57;;;1.70;99.90;;;;;;5085325;28;20180;-81
2021/03/10 08:03:02;;;;;;;33.40;20.67;;;1.70;99.90;;;;;;5104649;28;20759;-82
2021/03/10 08:05:29;;;;;;;28.67;17.20;;;1.70;99.90;;;;;;5103400;28;20468;-81
2021/03/10 08:08:11;;;;;;;25.50;16.73;;;2.70;99.90;;;;;;5102558;28;20184;-81
2021/03/10 08:10:38;;;;;;;23.33;15.43;;;1.90;99.90;;;;;;5084696;28;20453;-81
2021/03/10 08:13:14;;;;;;;26.10;16.97;;;1.90;99.90;;;;;;5101977;28;20438;-81
2021/03/10 08:15:39;;;;;;;31.00;20.70;;;1.90;99.90;;;;;;5100555;28;20472;-81
2021/03/10 08:18:05;;;;;;;26.87;16.40;;;1.80;99.90;;;;;;5101279;28;20410;-81
2021/03/10 08:20:34;;;;;;;26.63;17.20;;;1.90;99.90;;;;;;5101708;28;20176;-81
2021/03/10 08:23:01;;;;;;;26.27;16.20;;;2.00;99.90;;;;;;5084798;28;20429;-81
2021/03/10 08:25:27;;;;;;;26.23;17.47;;;2.00;99.90;;;;;;5085160;28;20469;-80
2021/03/10 08:27:53;;;;;;;21.77;15.10;;;2.40;99.90;;;;;;5103695;28;20403;-80
2021/03/10 08:30:25;;;;;;;23.77;15.20;;;2.00;99.90;;;;;;5085428;28;20416;-82
2021/03/10 08:32:51;;;;;;;27.70;17.47;;;2.00;99.90;;;;;;5085165;28;20168;-81
2021/03/10 08:35:20;;;;;;;23.50;16.60;;;2.00;99.90;;;;;;5086050;28;20434;-80
2021/03/10 08:37:54;;;;;;;27.47;18.03;;;2.00;99.90;;;;;;5084784;28;20831;-81
2021/03/10 08:40:25;;;;;;;30.37;17.93;;;2.00;99.90;;;;;;5083293;28;20459;-81
2021/03/10 08:42:51;;;;;;;27.03;16.67;;;2.10;99.90;;;;;;5083690;28;20318;-81
2021/03/10 08:45:27;;;;;;;23.17;15.70;;;2.20;99.90;;;;;;5101229;28;20817;-81
2021/03/10 08:48:07;;;;;;;23.47;16.30;;;2.30;99.90;;;;;;5082919;28;20436;-81
2021/03/10 08:50:35;;;;;;;24.33;16.43;;;2.30;99.90;;;;;;5101786;28;20505;-81
2021/03/10 08:53:02;;;;;;;25.83;17.80;;;2.40;99.90;;;;;;5102829;28;20440;-81
2021/03/10 08:55:28;;;;;;;28.63;19.60;;;2.60;99.90;;;;;;5103180;28;20509;-81
2021/03/10 08:57:55;;;;;;;22.90;16.77;;;2.60;99.90;;;;;;5101914;28;20450;-80
2021/03/10 09:00:25;;;;;;;23.87;16.60;;;2.70;99.90;;;;;;5084612;28;20176;-81
2021/03/10 09:02:51;;;;;;;26.53;18.37;;;2.80;99.90;;;;;;5086115;28;20891;-81
2021/03/10 09:05:24;;;;;;;21.70;15.43;;;3.10;99.90;;;;;;5086817;28;20522;-81
2021/03/10 09:07:50;;;;;;;23.90;16.47;;;3.10;99.90;;;;;;5087779;28;20422;-81
2021/03/10 09:10:17;;;;;;;20.73;14.47;;;2.90;99.90;;;;;;5107043;28;20168;-82
2021/03/10 09:12:46;;;;;;;20.63;15.53;;;2.90;99.90;;;;;;5088545;28;20182;-82
2021/03/10 09:15:14;;;;;;;26.20;17.90;;;3.40;99.90;;;;;;5105249;28;20426;-82
2021/03/10 09:17:40;;;;;;;30.57;20.33;;;4.10;99.90;;;;;;5105349;28;20403;-81
2021/03/10 09:20:25;;;;;;;23.03;15.97;;;4.90;99.90;;;;;;5086662;28;20586;-83
2021/03/10 09:22:51;;;;;;;19.33;14.10;;;5.30;99.90;;;;;;5104558;28;20159;-82
2021/03/10 09:25:25;;;;;;;20.30;13.83;;;5.70;99.90;;;;;;5086182;28;20204;-82
2021/03/10 09:28:09;;;;;;;21.80;14.67;;;5.50;99.90;;;;;;5103508;28;20245;-82
2021/03/10 09:30:41;;;;;;;23.63;16.93;;;4.80;99.90;;;;;;5085053;28;20164;-82
2021/03/10 09:33:27;;;;;;;26.97;17.33;;;4.50;99.90;;;;;;5084541;28;20166;-82
2021/03/10 09:36:00;;;;;;;19.50;13.83;;;4.50;99.90;;;;;;5104045;28;20171;-82
2021/03/10 09:38:28;;;;;;;19.23;13.97;;;4.10;99.90;;;;;;5083955;28;20181;-81
2021/03/10 09:40:57;;;;;;;19.53;12.63;;;4.00;99.90;;;;;;5083544;28;20173;-81
2021/03/10 09:43:27;;;;;;;19.53;13.20;;;4.00;99.90;;;;;;5101511;28;20170;-81
2021/03/10 09:46:00;;;;;;;20.97;14.90;;;3.90;99.90;;;;;;5082801;28;20205;-82
2021/03/10 09:48:35;;;;;;;19.53;13.73;;;3.70;99.90;;;;;;5101816;28;20235;-82
2021/03/10 09:51:08;;;;;;;22.73;16.07;;;3.90;99.90;;;;;;5084248;28;20654;-82
2021/03/10 09:53:38;;;;;;;21.30;13.73;;;4.10;99.90;;;;;;5104881;28;20173;-82
2021/03/10 09:56:15;;;;;;;21.63;15.43;;;4.20;99.90;;;;;;5105047;28;20210;-82
2021/03/10 09:58:50;;;;;;;17.63;12.40;;;4.20;99.90;;;;;;5086425;28;20175;-82
2021/03/10 10:01:17;;;;;;;21.30;12.67;;;4.40;99.90;;;;;;5086226;28;20649;-82
2021/03/10 10:03:43;;;;;;;19.80;13.17;;;4.40;99.90;;;;;;5086669;28;20168;-82
2021/03/10 10:06:09;;;;;;;20.13;13.87;;;4.50;99.90;;;;;;5086304;28;20176;-83
2021/03/10 10:08:36;;;;;;;20.10;13.57;;;4.90;99.90;;;;;;5105468;28;20706;-82
2021/03/10 10:11:06;;;;;;;19.87;14.53;;;5.10;99.90;;;;;;5105516;28;20180;-82
2021/03/10 10:13:32;;;;;;;27.93;18.73;;;5.50;99.90;;;;;;5087681;28;20166;-81
2021/03/10 10:15:58;;;;;;;21.40;15.87;;;5.40;99.90;;;;;;5086504;28;20182;-82
2021/03/10 10:18:24;;;;;;;19.07;14.60;;;5.10;99.90;;;;;;5104602;28;20186;-82
2021/03/10 10:20:50;;;;;;;19.97;14.73;;;5.20;99.90;;;;;;5106231;28;20342;-82
2021/03/10 10:23:16;;;;;;;33.93;22.17;;;5.20;99.90;;;;;;5105461;28;20178;-82
2021/03/10 10:25:42;;;;;;;21.27;16.13;;;5.30;99.90;;;;;;5105606;28;20229;-82
2021/03/10 10:28:08;;;;;;;23.10;14.93;;;5.50;99.90;;;;;;5087846;28;20188;-82
2021/03/10 10:30:33;;;;;;;21.63;14.57;;;5.80;99.90;;;;;;5087459;28;20228;-82
2021/03/10 10:32:59;;;;;;;20.60;14.50;;;5.80;99.90;;;;;;5086277;28;20181;-82
2021/03/10 10:35:24;;;;;;;22.03;15.57;;;5.70;99.90;;;;;;5087361;28;20202;-82
2021/03/10 10:37:50;;;;;;;22.20;14.63;;;6.30;99.90;;;;;;5105409;28;20267;-82
2021/03/10 10:40:19;;;;;;;20.90;14.47;;;6.90;99.90;;;;;;5087091;28;20674;-82
2021/03/10 10:42:51;;;;;;;19.70;11.90;;;7.30;99.90;;;;;;5105152;28;20254;-83
2021/03/10 10:45:17;;;;;;;20.47;14.03;;;6.80;99.90;;;;;;5087285;28;20207;-83
2021/03/10 10:47:44;;;;;;;24.17;15.67;;;7.10;99.90;;;;;;5105698;28;20168;-82
2021/03/10 10:50:12;;;;;;;20.20;14.00;;;6.90;99.90;;;;;;5105024;28;20235;-82
2021/03/10 10:52:38;;;;;;;20.23;14.90;;;6.50;99.90;;;;;;5087867;28;20191;-82
2021/03/10 10:55:06;;;;;;;24.03;14.87;;;6.40;99.90;;;;;;5105426;28;20192;-82
2021/03/10 10:57:32;;;;;;;22.10;14.80;;;6.50;99.90;;;;;;5085472;28;20655;-82
2021/03/10 10:59:58;;;;;;;20.97;14.10;;;6.90;99.90;;;;;;5086326;28;20249;-82
2021/03/10 11:02:24;;;;;;;19.77;13.77;;;7.20;99.90;;;;;;5085397;28;20191;-82
2021/03/10 11:04:49;;;;;;;17.07;11.40;;;7.10;99.90;;;;;;5102856;28;20211;-82
2021/03/10 11:07:15;;;;;;;15.63;11.33;;;6.60;99.90;;;;;;5104343;28;20215;-82
2021/03/10 11:09:42;;;;;;;20.33;13.33;;;5.90;99.90;;;;;;5084029;28;20211;-82
2021/03/10 11:12:11;;;;;;;19.00;12.10;;;5.80;99.90;;;;;;5084363;28;20180;-82
2021/03/10 11:14:38;;;;;;;18.23;13.67;;;6.00;99.90;;;;;;5102703;28;20211;-82
2021/03/10 11:17:04;;;;;;;19.03;12.77;;;6.40;99.90;;;;;;5102931;28;20177;-82
2021/03/10 11:19:30;;;;;;;19.30;12.50;;;6.70;99.90;;;;;;5102878;28;20215;-82
2021/03/10 11:21:56;;;;;;;19.40;12.97;;;7.10;99.90;;;;;;5083981;28;20183;-82
2021/03/10 11:24:21;;;;;;;18.87;12.73;;;7.60;99.90;;;;;;5082731;28;20665;-83
2021/03/10 11:26:48;;;;;;;16.10;10.00;;;7.70;99.90;;;;;;5101599;28;20176;-83
2021/03/10 11:29:14;;;;;;;16.47;11.70;;;7.70;99.90;;;;;;5083823;28;20199;-82
2021/03/10 11:31:40;;;;;;;14.80;10.17;;;7.40;99.90;;;;;;5101839;28;20179;-82
2021/03/10 11:34:05;;;;;;;15.63;11.60;;;7.30;99.90;;;;;;5101596;28;20203;-82
2021/03/10 11:36:31;;;;;;;14.27;10.03;;;7.40;99.90;;;;;;5099644;28;20183;-82
2021/03/10 11:38:57;;;;;;;17.30;11.33;;;7.00;99.90;;;;;;5100758;28;20172;-82
2021/03/10 11:41:23;;;;;;;13.43;9.97;;;6.80;99.90;;;;;;5084043;28;20184;-82
2021/03/10 11:43:49;;;;;;;17.23;11.27;;;6.70;99.90;;;;;;5101883;28;20192;-82
2021/03/10 11:46:14;;;;;;;15.90;9.87;;;6.90;99.90;;;;;;5101406;28;20176;-83
2021/03/10 11:48:40;;;;;;;14.87;9.17;;;7.10;99.90;;;;;;5083796;28;20242;-83
2021/03/10 11:54:28;;;;;;;12.73;9.20;;;6.40;99.90;;;;;;5103072;28;20203;-83
2021/03/10 11:56:53;;;;;;;12.20;8.70;;;7.40;99.90;;;;;;5102840;28;20172;-82
2021/03/10 11:59:20;;;;;;;14.57;9.07;;;8.20;99.90;;;;;;5085097;28;20180;-82
2021/03/10 12:01:45;;;;;;;14.43;9.83;;;8.10;99.90;;;;;;5085414;28;20176;-83
2021/03/10 12:04:11;;;;;;;14.97;10.17;;;7.80;99.90;;;;;;5085640;28;20215;-83
2021/03/10 12:06:37;;;;;;;13.17;8.70;;;7.40;99.90;;;;;;5087036;28;20187;-83
2021/03/10 12:09:03;;;;;;;13.20;10.23;;;7.00;99.90;;;;;;5086289;28;20161;-83
2021/03/10 12:11:29;;;;;;;24.73;13.17;;;6.70;99.90;;;;;;5105402;28;20230;-83
2021/03/10 12:13:55;;;;;;;13.60;9.17;;;6.50;99.90;;;;;;5106733;28;20198;-83
2021/03/10 12:16:20;;;;;;;21.23;12.10;;;6.40;99.90;;;;;;5105140;28;20176;-83
2021/03/10 12:18:46;;;;;;;13.03;8.90;;;6.50;99.90;;;;;;5105838;28;20184;-83
2021/03/10 12:21:12;;;;;;;14.73;9.23;;;6.70;99.90;;;;;;5104737;28;20178;-83
2021/03/10 12:23:38;;;;;;;14.50;9.33;;;6.50;99.90;;;;;;5101403;28;20200;-83
2021/03/10 12:26:03;;;;;;;12.53;8.40;;;6.50;99.90;;;;;;5083682;28;20169;-83
2021/03/10 12:28:29;;;;;;;15.23;10.07;;;6.80;99.90;;;;;;5084025;28;20203;-82
2021/03/10 12:30:55;;;;;;;10.63;7.73;;;6.90;99.90;;;;;;5102166;28;20172;-82
2021/03/10 12:33:21;;;;;;;12.97;8.90;;;7.20;99.90;;;;;;5102777;28;20182;-82
2021/03/10 12:35:47;;;;;;;16.17;9.23;;;7.80;99.90;;;;;;5083198;28;20247;-82
2021/03/10 12:38:12;;;;;;;12.77;9.13;;;8.20;99.90;;;;;;5102545;28;20172;-82
2021/03/10 12:40:38;;;;;;;12.63;8.70;;;8.70;99.90;;;;;;5083639;28;20229;-82
2021/03/10 12:43:04;;;;;;;16.83;10.40;;;8.80;99.90;;;;;;5084180;28;20199;-82
2021/03/10 12:45:29;;;;;;;13.53;9.90;;;8.70;99.90;;;;;;5101396;28;20200;-82
2021/03/10 12:47:55;;;;;;;12.87;9.23;;;8.30;99.90;;;;;;5084065;28;20181;-82
2021/03/10 12:50:21;;;;;;;10.87;8.07;;;8.00;99.90;;;;;;5102169;28;20167;-82